Apache Junction, AZ (85117)

10:56 AM MST on February 09, 2016 (GMT -0700)
Queen Valley | | Change Station
CLOSE
Current Station
Personal Weather Station
Location: Queen Valley, AZ
Elevation: 2028 ft
Nearby Weather Stations

Elev 2028 ft 33.30 °N, 111.29 °W | Updated 34 seconds ago

Clear
Clear
74.8 °F
Feels Like 76 °F
N
7.8
Wind Variable Wind from ENE

Today
High -- | Low -- °F
--% Chance of Precip.
Yesterday
High -- | Low -- °F
Precip. -- in
Pressure 30.24 in
Visibility 45.0 miles
Clouds Clear
Heat Index 76 °F
Dew Point 28 °F
Humidity 18%
Rainfall 0.00 in
Snow Depth Not available.
7:15 AM 6:04 PM
New Moon, 2% visible
METAR KIWA 091747Z 00000KT 45SM SKC 22/M02 A3024
Pressure 30.24 in
Visibility 45.0 miles
Clouds Clear
Heat Index 76 °F
Dew Point 28 °F
Humidity 18%
Rainfall 0.00 in
Snow Depth Not available.
7:15 AM 6:04 PM
New Moon, 2% visible
METAR KIWA 091747Z 00000KT 45SM SKC 22/M02 A3024

10-Day Weather Forecast

Almanac

Astronomy

Feb. 09, 2016 Rise Set
Actual Time
Civil Twilight
Nautical Twilight
Astronomical Twilight
Moon
Length of Visible Light
Length of Day
Tomorrow will be .
, % of the Moon is Illuminated

Today's Extremes

State Highs State Lows

Community

WunderPhotos

Upload Photos

1,891,650 photos uploaded!

WunderBlog® & News

Nearby

Air Quality

  Air Quality AQ Index Pollutant
Not available.

Snow Depth

Station Depth Elevation

Earthquake Activity

City Distance Mag. Time & Date
Minimum magnitude displayed is 2.5.

Coastal Water Temperatures

Place Temperature

Stations

Nearby Weather Stations

Station Location Temp. Windchill Dew Point Humidity Wind Precip. Elev Updated Type
                   

Watches & Warnings

There are currently no watches in effect.